createdAt,value
2017-12-29T00:00:04.506Z,77.25
2017-12-29T00:01:57.685Z,77.16
2017-12-29T00:02:57.689Z,77.25
2017-12-29T00:04:49.865Z,77.06
2017-12-29T00:05:49.886Z,77.35
2017-12-29T00:07:42.029Z,77.25
2017-12-29T00:08:42.031Z,76.78
2017-12-29T00:10:35.178Z,77.25
2017-12-29T00:11:35.186Z,77.25
2017-12-29T00:13:28.356Z,77.45
2017-12-29T00:14:28.344Z,77.25
2017-12-29T00:16:20.507Z,76.97
2017-12-29T00:17:20.521Z,76.97
2017-12-29T00:19:12.712Z,77.45
2017-12-29T00:20:12.725Z,77.16
2017-12-29T00:22:04.851Z,77.64
2017-12-29T00:23:04.859Z,77.35
2017-12-29T00:25:07.712Z,77.73
2017-12-29T00:26:07.713Z,77.73
2017-12-29T00:27:59.922Z,77.54
2017-12-29T00:28:59.941Z,77.25
2017-12-29T00:30:52.122Z,77.64
2017-12-29T00:31:52.118Z,77.54
2017-12-29T00:33:44.312Z,77.54
2017-12-29T00:34:44.278Z,77.16
2017-12-29T00:36:36.427Z,77.16
2017-12-29T00:37:36.444Z,77.06
2017-12-29T00:39:28.622Z,77.54
2017-12-29T00:40:28.631Z,77.64
2017-12-29T00:42:20.770Z,77.92
2017-12-29T00:43:20.770Z,77.45
2017-12-29T00:45:12.962Z,77.35
2017-12-29T00:46:12.965Z,77.73
2017-12-29T00:48:05.147Z,77.73
2017-12-29T00:49:05.144Z,77.64
2017-12-29T00:50:57.340Z,77.35
2017-12-29T00:51:57.347Z,77.16
2017-12-29T00:53:49.526Z,77.54
2017-12-29T00:54:49.539Z,77.25
2017-12-29T00:56:41.693Z,77.64
2017-12-29T00:57:41.721Z,77.83
2017-12-29T00:59:33.915Z,77.64
2017-12-29T01:00:33.902Z,77.35
2017-12-29T01:02:26.053Z,77.73
2017-12-29T01:03:26.100Z,77.73
2017-12-29T01:05:19.246Z,77.73
2017-12-29T01:06:19.248Z,77.73
2017-12-29T01:08:11.453Z,77.88
2017-12-29T01:09:11.419Z,77.78
2017-12-29T01:11:03.626Z,78.30
2017-12-29T01:12:03.625Z,78.35
2017-12-29T01:13:55.785Z,78.30
2017-12-29T01:14:55.796Z,78.26
2017-12-29T01:16:48.976Z,78.35
2017-12-29T01:17:48.964Z,78.07
2017-12-29T01:19:41.151Z,78.30
2017-12-29T01:20:41.164Z,78.16
2017-12-29T01:22:34.319Z,77.50
2017-12-29T01:23:34.342Z,77.88
2017-12-29T01:25:26.501Z,77.69
2017-12-29T01:26:26.515Z,77.59
2017-12-29T01:28:18.699Z,77.54
2017-12-29T01:29:18.704Z,77.69
2017-12-29T01:31:10.854Z,77.64
2017-12-29T01:32:10.856Z,77.69
2017-12-29T01:34:03.069Z,77.64
2017-12-29T01:35:03.030Z,77.64
2017-12-29T01:36:55.175Z,77.64
2017-12-29T01:37:55.210Z,77.73
2017-12-29T01:39:48.375Z,77.54
2017-12-29T01:40:48.371Z,77.25
2017-12-29T01:42:40.552Z,77.54
2017-12-29T01:43:40.556Z,77.45
2017-12-29T01:45:32.735Z,77.45
2017-12-29T01:46:32.745Z,77.16
2017-12-29T01:48:24.880Z,77.45
2017-12-29T01:49:24.891Z,77.25
2017-12-29T01:51:17.073Z,77.45
2017-12-29T01:52:17.069Z,76.97
2017-12-29T01:54:09.223Z,77.31
2017-12-29T01:55:09.258Z,77.40
2017-12-29T01:57:01.541Z,77.35
2017-12-29T01:58:01.551Z,77.59
2017-12-29T01:59:53.733Z,77.64
2017-12-29T02:00:53.733Z,77.64
2017-12-29T02:02:45.926Z,77.54
2017-12-29T02:03:45.935Z,77.45
2017-12-29T02:05:39.089Z,77.35
2017-12-29T02:06:39.106Z,77.35
2017-12-29T02:08:31.266Z,77.64
2017-12-29T02:09:31.269Z,77.73
2017-12-29T02:11:23.437Z,77.73
2017-12-29T02:12:23.463Z,77.64
2017-12-29T02:14:15.633Z,77.25
2017-12-29T02:15:15.625Z,77.25
2017-12-29T02:17:25.105Z,77.50
2017-12-29T02:18:25.169Z,77.40
2017-12-29T02:20:17.345Z,77.69
2017-12-29T02:21:17.318Z,77.69
2017-12-29T02:23:09.485Z,77.12
2017-12-29T02:24:09.498Z,77.31
2017-12-29T02:26:01.685Z,77.40
2017-12-29T02:27:01.699Z,77.40
2017-12-29T02:28:53.870Z,77.40
2017-12-29T02:29:53.877Z,77.31
2017-12-29T02:31:46.068Z,77.69
2017-12-29T02:32:46.071Z,77.22
2017-12-29T02:34:38.281Z,77.54
2017-12-29T02:35:38.245Z,77.40
2017-12-29T02:37:46.800Z,77.50
2017-12-29T02:38:46.784Z,77.54
2017-12-29T02:40:55.272Z,77.35
2017-12-29T02:41:55.261Z,76.93
2017-12-29T02:43:47.492Z,77.40
2017-12-29T02:44:47.468Z,77.50
2017-12-29T02:46:39.631Z,77.35
2017-12-29T02:47:39.655Z,77.22
2017-12-29T02:49:31.856Z,77.50
2017-12-29T02:50:31.803Z,77.69
2017-12-29T02:52:23.966Z,77.78
2017-12-29T02:53:23.967Z,77.50
2017-12-29T02:55:32.680Z,77.69
2017-12-29T02:56:32.662Z,77.97
2017-12-29T02:58:24.807Z,77.78
2017-12-29T02:59:24.815Z,77.78
2017-12-29T03:01:33.325Z,78.35
2017-12-29T03:02:33.332Z,77.78
2017-12-29T03:04:25.474Z,77.78
2017-12-29T03:05:25.499Z,78.26
2017-12-29T03:07:17.645Z,77.88
2017-12-29T03:08:17.675Z,77.97
2017-12-29T03:10:09.866Z,78.35
2017-12-29T03:11:09.899Z,78.26
2017-12-29T03:13:02.051Z,78.26
2017-12-29T03:14:02.061Z,78.26
2017-12-29T03:15:54.223Z,78.16
2017-12-29T03:16:54.225Z,78.35
2017-12-29T03:18:46.454Z,77.59
2017-12-29T03:19:46.424Z,77.88
2017-12-29T03:21:38.597Z,77.78
2017-12-29T03:22:38.588Z,78.26
2017-12-29T03:24:30.773Z,78.16
2017-12-29T03:25:30.780Z,78.35
2017-12-29T03:27:22.913Z,77.88
2017-12-29T03:28:22.946Z,78.26
2017-12-29T03:30:31.495Z,77.78
2017-12-29T03:31:31.496Z,77.78
2017-12-29T03:33:23.707Z,77.88
2017-12-29T03:34:23.721Z,78.16
2017-12-29T03:36:15.866Z,78.07
2017-12-29T03:37:15.866Z,77.69
2017-12-29T03:39:21.329Z,77.78
2017-12-29T03:40:21.367Z,78.07
2017-12-29T03:42:13.590Z,77.78
2017-12-29T03:43:13.597Z,77.78
2017-12-29T03:45:05.767Z,77.97
2017-12-29T03:46:05.769Z,78.26
2017-12-29T03:47:57.960Z,78.07
2017-12-29T03:48:57.979Z,78.16
2017-12-29T03:50:50.198Z,77.78
2017-12-29T03:51:50.217Z,77.78
2017-12-29T03:53:42.470Z,78.07
2017-12-29T03:54:42.372Z,77.88
2017-12-29T03:56:34.500Z,78.26
2017-12-29T03:57:34.519Z,78.35
2017-12-29T03:59:26.756Z,77.97
2017-12-29T04:00:26.709Z,78.07
2017-12-29T04:02:18.875Z,78.16
2017-12-29T04:03:18.884Z,78.35
2017-12-29T04:05:11.208Z,78.26
2017-12-29T04:06:11.140Z,78.35
2017-12-29T04:08:04.282Z,78.07
2017-12-29T04:09:04.289Z,77.97
2017-12-29T04:10:56.464Z,78.64
2017-12-29T04:11:56.467Z,78.16
2017-12-29T04:13:48.643Z,78.16
2017-12-29T04:14:48.625Z,78.73
2017-12-29T04:16:40.812Z,78.73
2017-12-29T04:17:40.794Z,78.83
2017-12-29T04:19:33.926Z,78.83
2017-12-29T04:20:33.938Z,78.83
2017-12-29T04:22:26.170Z,78.83
2017-12-29T04:23:26.245Z,78.73
2017-12-29T04:25:19.299Z,78.83
2017-12-29T04:26:19.317Z,78.83
2017-12-29T04:28:11.466Z,79.39
2017-12-29T04:29:11.474Z,79.17
2017-12-29T04:31:03.641Z,79.17
2017-12-29T04:32:03.656Z,79.36
2017-12-29T04:33:55.830Z,79.11
2017-12-29T04:34:55.834Z,79.07
2017-12-29T04:36:48.020Z,79.45
2017-12-29T04:37:48.033Z,79.17
2017-12-29T04:39:40.215Z,79.83
2017-12-29T04:40:40.188Z,79.87
2017-12-29T04:42:32.349Z,79.36
2017-12-29T04:43:32.357Z,79.07
2017-12-29T04:45:24.553Z,79.30
2017-12-29T04:46:24.547Z,79.36
2017-12-29T04:48:16.691Z,80.21
2017-12-29T04:49:16.691Z,79.74
2017-12-29T04:51:08.827Z,79.96
2017-12-29T04:52:08.824Z,80.34
2017-12-29T04:54:00.960Z,79.96
2017-12-29T04:55:00.979Z,79.21
2017-12-29T04:57:06.451Z,79.36
2017-12-29T04:58:06.447Z,79.93
2017-12-29T04:59:58.669Z,79.30
2017-12-29T05:00:58.650Z,79.45
2017-12-29T05:02:51.798Z,79.36
2017-12-29T05:03:51.798Z,79.39
2017-12-29T05:05:43.966Z,79.45
2017-12-29T05:06:43.975Z,79.36
2017-12-29T05:08:36.141Z,79.26
2017-12-29T05:09:36.149Z,80.11
2017-12-29T05:11:28.296Z,80.11
2017-12-29T05:12:28.317Z,79.83
2017-12-29T05:14:21.477Z,79.36
2017-12-29T05:15:21.467Z,80.30
2017-12-29T05:17:13.968Z,79.93
2017-12-29T05:18:13.647Z,80.21
2017-12-29T05:20:05.804Z,80.21
2017-12-29T05:21:05.814Z,79.93
2017-12-29T05:22:57.981Z,80.02
2017-12-29T05:23:57.988Z,80.11
2017-12-29T05:25:50.136Z,80.34
2017-12-29T05:26:50.136Z,79.83
2017-12-29T05:28:42.298Z,79.83
2017-12-29T05:29:42.279Z,80.02
2017-12-29T05:31:45.108Z,80.21
2017-12-29T05:32:45.124Z,79.83
2017-12-29T05:34:37.277Z,79.74
2017-12-29T05:35:37.289Z,79.93
2017-12-29T05:37:29.483Z,79.83
2017-12-29T05:38:29.454Z,79.74
2017-12-29T05:40:22.633Z,79.83
2017-12-29T05:41:22.610Z,79.74
2017-12-29T05:43:14.779Z,80.49
2017-12-29T05:44:14.785Z,80.21
2017-12-29T05:46:06.949Z,80.11
2017-12-29T05:47:06.955Z,80.40
2017-12-29T05:48:59.123Z,79.93
2017-12-29T05:49:59.151Z,79.64
2017-12-29T05:51:52.256Z,79.93
2017-12-29T05:52:53.025Z,79.93
2017-12-29T05:55:00.774Z,79.83
2017-12-29T05:56:00.769Z,79.83
2017-12-29T05:57:52.943Z,80.11
2017-12-29T05:58:52.945Z,79.83
2017-12-29T06:00:45.141Z,79.93
2017-12-29T06:01:45.142Z,79.74
2017-12-29T06:03:37.311Z,79.93
2017-12-29T06:04:37.318Z,79.74
2017-12-29T06:06:29.557Z,79.83
2017-12-29T06:07:29.565Z,79.64
2017-12-29T06:09:21.730Z,79.93
2017-12-29T06:10:21.757Z,79.74
2017-12-29T06:12:13.928Z,79.87
2017-12-29T06:13:13.929Z,79.74
2017-12-29T06:15:06.096Z,80.30
2017-12-29T06:16:06.095Z,79.39
2017-12-29T06:17:58.261Z,78.92
2017-12-29T06:18:58.242Z,79.21
2017-12-29T06:20:50.439Z,79.39
2017-12-29T06:21:50.425Z,79.39
2017-12-29T06:23:42.616Z,79.11
2017-12-29T06:24:42.617Z,79.21
2017-12-29T06:26:34.812Z,79.39
2017-12-29T06:27:34.803Z,79.68
2017-12-29T06:29:26.981Z,78.92
2017-12-29T06:30:26.969Z,79.11
2017-12-29T06:32:19.113Z,79.11
2017-12-29T06:33:19.123Z,79.30
2017-12-29T06:35:11.332Z,79.30
2017-12-29T06:36:11.328Z,79.30
2017-12-29T06:38:03.497Z,79.02
2017-12-29T06:39:03.510Z,79.11
2017-12-29T06:40:55.703Z,79.02
2017-12-29T06:41:55.701Z,79.11
2017-12-29T06:43:47.873Z,79.39
2017-12-29T06:44:47.870Z,79.11
2017-12-29T06:46:40.081Z,79.49
2017-12-29T06:47:40.062Z,79.49
2017-12-29T06:49:32.293Z,79.39
2017-12-29T06:50:32.201Z,79.39
2017-12-29T06:52:40.713Z,79.49
2017-12-29T06:53:40.710Z,79.68
2017-12-29T06:55:32.848Z,79.11
2017-12-29T06:56:32.858Z,79.49
2017-12-29T06:58:25.087Z,79.39
2017-12-29T06:59:25.111Z,79.39
2017-12-29T07:01:17.245Z,79.49
2017-12-29T07:02:17.246Z,79.30
2017-12-29T07:04:10.400Z,79.58
2017-12-29T07:05:10.474Z,79.58
2017-12-29T07:07:18.883Z,79.30
2017-12-29T07:08:18.880Z,79.11
2017-12-29T07:10:11.046Z,79.30
2017-12-29T07:11:11.032Z,79.21
2017-12-29T07:13:03.170Z,79.30
2017-12-29T07:14:03.200Z,78.92
2017-12-29T07:15:55.385Z,79.21
2017-12-29T07:16:55.394Z,79.30
2017-12-29T07:18:47.514Z,79.49
2017-12-29T07:19:47.528Z,79.30
2017-12-29T07:21:39.738Z,79.21
2017-12-29T07:22:39.696Z,78.83
2017-12-29T07:24:47.155Z,78.83
2017-12-29T07:25:47.168Z,78.54
2017-12-29T07:27:39.351Z,78.92
2017-12-29T07:28:39.343Z,78.83
2017-12-29T07:30:31.487Z,78.92
2017-12-29T07:31:31.478Z,79.02
2017-12-29T07:33:34.426Z,78.92
2017-12-29T07:34:34.342Z,79.30
2017-12-29T07:36:26.499Z,79.11
2017-12-29T07:37:26.500Z,79.02
2017-12-29T07:39:19.662Z,79.39
2017-12-29T07:40:19.665Z,78.83
2017-12-29T07:42:11.862Z,78.83
2017-12-29T07:43:11.875Z,78.73
2017-12-29T07:45:04.119Z,78.45
2017-12-29T07:46:04.117Z,78.35
2017-12-29T07:47:56.277Z,78.92
2017-12-29T07:48:56.279Z,79.11
2017-12-29T07:50:48.446Z,78.73
2017-12-29T07:51:48.451Z,79.02
2017-12-29T07:53:40.590Z,78.54
2017-12-29T07:54:40.624Z,79.02
2017-12-29T07:56:32.786Z,78.64
2017-12-29T07:57:32.772Z,78.54
2017-12-29T07:59:24.971Z,78.64
2017-12-29T08:00:24.965Z,78.73
2017-12-29T08:02:18.126Z,78.73
2017-12-29T08:03:18.125Z,78.26
2017-12-29T08:05:10.377Z,78.73
2017-12-29T08:06:10.269Z,78.54
2017-12-29T08:08:03.422Z,78.54
2017-12-29T08:09:03.417Z,78.73
2017-12-29T08:10:55.568Z,78.64
2017-12-29T08:11:55.578Z,78.92
2017-12-29T08:13:47.752Z,78.92
2017-12-29T08:14:47.750Z,78.83
2017-12-29T08:16:39.907Z,78.64
2017-12-29T08:17:39.929Z,78.83
2017-12-29T08:19:33.132Z,78.92
2017-12-29T08:20:33.133Z,78.83
2017-12-29T08:22:25.269Z,78.73
2017-12-29T08:23:25.292Z,78.64
2017-12-29T08:25:17.508Z,78.83
2017-12-29T08:26:17.470Z,78.54
2017-12-29T08:28:14.158Z,78.83
2017-12-29T08:29:09.655Z,78.92
2017-12-29T08:31:01.800Z,78.73
2017-12-29T08:32:01.816Z,78.73
2017-12-29T08:33:53.949Z,79.21
2017-12-29T08:34:53.965Z,78.92
2017-12-29T08:36:46.111Z,79.02
2017-12-29T08:37:46.123Z,78.73
2017-12-29T08:39:38.304Z,79.30
2017-12-29T08:40:38.318Z,78.83
2017-12-29T08:42:30.529Z,78.92
2017-12-29T08:43:30.502Z,78.83
2017-12-29T08:45:23.642Z,78.45
2017-12-29T08:46:23.697Z,78.83
2017-12-29T08:48:15.850Z,78.64
2017-12-29T08:49:15.839Z,78.26
2017-12-29T08:51:07.989Z,78.73
2017-12-29T08:52:08.007Z,78.54
2017-12-29T08:54:00.200Z,78.73
2017-12-29T08:55:00.145Z,78.26
2017-12-29T08:56:53.308Z,78.16
2017-12-29T08:57:53.325Z,78.26
2017-12-29T08:59:45.471Z,78.26
2017-12-29T09:00:45.463Z,78.16
2017-12-29T09:02:37.638Z,78.07
2017-12-29T09:03:37.652Z,78.64
2017-12-29T09:05:29.829Z,77.88
2017-12-29T09:06:29.808Z,77.97
2017-12-29T09:08:21.974Z,78.07
2017-12-29T09:09:21.987Z,77.97
2017-12-29T09:11:14.164Z,78.73
2017-12-29T09:12:14.154Z,78.45
2017-12-29T09:14:06.401Z,78.64
2017-12-29T09:15:06.392Z,78.64
2017-12-29T09:16:58.655Z,79.02
2017-12-29T09:17:58.654Z,78.92
2017-12-29T09:19:50.806Z,78.54
2017-12-29T09:20:50.811Z,79.02
2017-12-29T09:22:43.018Z,79.02
2017-12-29T09:23:43.019Z,78.92
2017-12-29T09:25:51.549Z,79.21
2017-12-29T09:26:51.545Z,78.73
2017-12-29T09:28:43.699Z,78.73
2017-12-29T09:29:43.733Z,78.92
2017-12-29T09:31:35.940Z,79.96
2017-12-29T09:32:35.904Z,80.53
2017-12-29T09:34:29.056Z,79.96
2017-12-29T09:35:29.063Z,80.86
2017-12-29T09:37:22.284Z,79.58
2017-12-29T09:38:22.237Z,81.33
2017-12-29T09:40:15.370Z,79.11
2017-12-29T09:41:15.405Z,79.39
2017-12-29T09:43:07.539Z,79.49
2017-12-29T09:44:07.537Z,78.92
2017-12-29T09:45:59.767Z,79.53
2017-12-29T09:46:59.764Z,80.15
2017-12-29T09:48:51.967Z,77.69
2017-12-29T09:49:51.975Z,78.26
2017-12-29T09:51:44.140Z,80.25
2017-12-29T09:52:44.148Z,78.35
2017-12-29T09:54:36.280Z,79.87
2017-12-29T09:55:36.297Z,79.68
2017-12-29T09:57:28.481Z,80.72
2017-12-29T09:58:28.477Z,78.26
2017-12-29T10:00:20.633Z,77.78
2017-12-29T10:01:20.656Z,78.16
2017-12-29T10:03:12.818Z,78.16
2017-12-29T10:04:12.808Z,78.58
2017-12-29T10:06:04.979Z,78.02
2017-12-29T10:07:04.984Z,78.58
2017-12-29T10:08:57.190Z,78.92
2017-12-29T10:09:57.164Z,77.50
2017-12-29T10:11:49.357Z,77.73
2017-12-29T10:12:49.367Z,77.83
2017-12-29T10:14:41.501Z,78.02
2017-12-29T10:15:41.511Z,78.02
2017-12-29T10:17:46.993Z,78.11
2017-12-29T10:18:46.992Z,78.39
2017-12-29T10:20:39.171Z,77.25
2017-12-29T10:21:39.187Z,76.87
2017-12-29T10:23:31.368Z,77.16
2017-12-29T10:24:31.397Z,77.54
2017-12-29T10:26:40.150Z,76.40
2017-12-29T10:27:40.153Z,76.97
2017-12-29T10:29:46.642Z,76.59
2017-12-29T10:30:46.638Z,77.06
2017-12-29T10:32:38.797Z,77.06
2017-12-29T10:33:38.802Z,76.78
2017-12-29T10:35:31.975Z,76.59
2017-12-29T10:36:31.963Z,77.54
2017-12-29T10:38:24.149Z,76.68
2017-12-29T10:39:24.156Z,76.78
2017-12-29T10:41:16.341Z,77.35
2017-12-29T10:42:16.341Z,77.54
2017-12-29T10:44:09.506Z,76.59
2017-12-29T10:45:09.499Z,76.78
2017-12-29T10:47:02.687Z,77.16
2017-12-29T10:48:02.695Z,76.31
2017-12-29T10:49:55.877Z,78.02
2017-12-29T10:50:55.873Z,76.50
2017-12-29T10:52:49.077Z,76.03
2017-12-29T10:53:49.081Z,75.74
2017-12-29T10:55:41.278Z,76.68
2017-12-29T10:56:41.253Z,76.59
2017-12-29T10:58:33.451Z,75.84
2017-12-29T10:59:33.429Z,76.03
2017-12-29T11:01:26.645Z,75.84
2017-12-29T11:02:26.588Z,75.64
2017-12-29T11:04:19.775Z,75.84
2017-12-29T11:05:19.778Z,75.64
2017-12-29T11:07:12.961Z,76.68
2017-12-29T11:08:12.952Z,78.49
2017-12-29T11:10:21.460Z,76.59
2017-12-29T11:11:21.460Z,76.03
2017-12-29T11:13:13.620Z,76.21
2017-12-29T11:14:13.609Z,76.21
2017-12-29T11:16:05.769Z,76.78
2017-12-29T11:17:05.787Z,75.84
2017-12-29T11:18:57.974Z,76.82
2017-12-29T11:19:57.975Z,76.82
2017-12-29T11:21:50.107Z,75.87
2017-12-29T11:22:50.126Z,75.59
2017-12-29T11:24:42.315Z,74.54
2017-12-29T11:25:42.302Z,74.64
2017-12-29T11:27:34.480Z,74.35
2017-12-29T11:28:34.493Z,74.35
2017-12-29T11:30:26.642Z,74.26
2017-12-29T11:31:26.650Z,74.16
2017-12-29T11:33:18.811Z,74.07
2017-12-29T11:34:18.816Z,73.31
2017-12-29T11:36:10.962Z,73.60
2017-12-29T11:37:10.985Z,73.50
2017-12-29T11:39:03.177Z,72.93
2017-12-29T11:40:03.195Z,73.12
2017-12-29T11:41:56.338Z,73.03
2017-12-29T11:42:57.074Z,73.31
2017-12-29T11:44:48.547Z,73.12
2017-12-29T11:45:48.525Z,73.03
2017-12-29T11:47:40.676Z,73.03
2017-12-29T11:48:40.735Z,73.22
2017-12-29T11:50:32.856Z,72.84
2017-12-29T11:51:32.863Z,72.02
2017-12-29T11:53:25.045Z,71.98
2017-12-29T11:54:25.042Z,72.36
2017-12-29T11:56:17.230Z,71.64
2017-12-29T11:57:17.206Z,70.82
2017-12-29T11:59:09.424Z,69.68
2017-12-29T12:00:09.432Z,69.68
2017-12-29T12:02:01.584Z,67.44
2017-12-29T12:03:01.587Z,66.05
2017-12-29T12:04:53.804Z,66.52
2017-12-29T12:05:53.794Z,66.01
2017-12-29T12:07:45.949Z,66.05
2017-12-29T12:08:45.966Z,65.57
2017-12-29T12:10:39.155Z,64.72
2017-12-29T12:11:39.160Z,64.53
2017-12-29T12:13:32.332Z,63.23
2017-12-29T12:14:32.346Z,62.75
2017-12-29T12:16:25.538Z,62.18
2017-12-29T12:17:25.558Z,61.55
2017-12-29T12:19:17.742Z,60.69
2017-12-29T12:20:17.742Z,61.71
2017-12-29T12:22:09.964Z,61.32
2017-12-29T12:23:09.987Z,61.52
2017-12-29T12:25:02.145Z,61.23
2017-12-29T12:26:02.149Z,61.42
2017-12-29T12:27:54.341Z,60.75
2017-12-29T12:28:54.364Z,60.88
2017-12-29T12:30:46.767Z,60.28
2017-12-29T12:31:46.546Z,61.48
2017-12-29T12:33:39.728Z,61.96
2017-12-29T12:34:39.736Z,63.35
2017-12-29T12:36:31.946Z,65.50
2017-12-29T12:37:31.949Z,65.88
2017-12-29T12:39:24.134Z,66.83
2017-12-29T12:40:24.130Z,67.12
2017-12-29T12:42:16.282Z,67.88
2017-12-29T12:43:16.300Z,67.59
2017-12-29T12:45:08.500Z,68.41
2017-12-29T12:46:08.499Z,68.32
2017-12-29T12:48:00.653Z,68.51
2017-12-29T12:49:00.678Z,68.79
2017-12-29T12:51:06.166Z,69.65
2017-12-29T12:52:06.169Z,69.84
2017-12-29T12:53:58.362Z,69.84
2017-12-29T12:54:58.360Z,69.74
2017-12-29T12:57:06.877Z,69.84
2017-12-29T12:58:06.872Z,69.74
2017-12-29T12:59:59.058Z,69.74
2017-12-29T13:00:59.056Z,69.93
2017-12-29T13:02:51.220Z,70.12
2017-12-29T13:03:51.235Z,69.84
2017-12-29T13:05:43.700Z,69.74
2017-12-29T13:06:43.480Z,69.55
2017-12-29T13:08:35.635Z,70.03
2017-12-29T13:09:35.665Z,70.12
2017-12-29T13:11:27.832Z,70.69
2017-12-29T13:12:27.837Z,70.12
2017-12-29T13:14:20.004Z,70.31
2017-12-29T13:15:20.020Z,70.21
2017-12-29T13:17:12.255Z,70.78
2017-12-29T13:18:12.224Z,70.78
2017-12-29T13:20:04.375Z,70.78
2017-12-29T13:21:04.364Z,70.78
2017-12-29T13:22:56.588Z,70.88
2017-12-29T13:23:56.572Z,70.78
2017-12-29T13:25:48.796Z,70.78
2017-12-29T13:26:48.796Z,70.98
2017-12-29T13:28:40.970Z,71.26
2017-12-29T13:29:40.981Z,70.88
2017-12-29T13:31:34.198Z,70.37
2017-12-29T13:32:34.195Z,70.69
2017-12-29T13:34:26.665Z,71.22
2017-12-29T13:35:26.463Z,70.28
2017-12-29T13:37:18.653Z,70.28
2017-12-29T13:38:18.632Z,70.75
2017-12-29T13:40:10.828Z,70.94
2017-12-29T13:41:10.820Z,70.84
2017-12-29T13:43:03.000Z,71.41
2017-12-29T13:44:03.018Z,70.65
2017-12-29T13:46:11.544Z,70.47
2017-12-29T13:47:11.494Z,70.56
2017-12-29T13:49:03.659Z,70.56
2017-12-29T13:50:03.676Z,70.94
2017-12-29T13:51:56.882Z,70.94
2017-12-29T13:52:56.894Z,70.75
2017-12-29T13:54:49.037Z,70.65
2017-12-29T13:55:49.063Z,70.28
2017-12-29T13:57:41.214Z,70.47
2017-12-29T13:58:41.201Z,70.65
2017-12-29T14:00:33.406Z,70.65
2017-12-29T14:01:33.369Z,70.18
2017-12-29T14:03:25.556Z,70.28
2017-12-29T14:04:25.558Z,70.37
2017-12-29T14:06:18.789Z,70.65
2017-12-29T14:07:18.786Z,70.28
2017-12-29T14:09:10.968Z,70.56
2017-12-29T14:10:10.974Z,71.13
2017-12-29T14:12:03.139Z,71.22
2017-12-29T14:13:03.137Z,71.03
2017-12-29T14:15:05.990Z,71.13
2017-12-29T14:16:06.001Z,71.32
2017-12-29T14:17:58.151Z,70.56
2017-12-29T14:18:58.166Z,70.65
2017-12-29T14:20:50.343Z,70.65
2017-12-29T14:21:50.338Z,70.75
2017-12-29T14:23:42.501Z,70.65
2017-12-29T14:24:42.558Z,70.75
2017-12-29T14:26:35.400Z,70.84
2017-12-29T14:27:34.672Z,70.94
2017-12-29T14:29:26.824Z,71.32
2017-12-29T14:30:26.852Z,70.75
2017-12-29T14:32:19.024Z,70.47
2017-12-29T14:33:19.028Z,70.56
2017-12-29T14:35:11.153Z,70.28
2017-12-29T14:36:11.161Z,70.75
2017-12-29T14:38:03.354Z,70.56
2017-12-29T14:39:03.348Z,70.65
2017-12-29T14:40:55.530Z,70.56
2017-12-29T14:41:55.528Z,71.03
2017-12-29T14:43:48.713Z,70.75
2017-12-29T14:44:48.688Z,70.56
2017-12-29T14:46:40.844Z,70.09
2017-12-29T14:47:40.833Z,71.32
2017-12-29T14:49:34.029Z,70.65
2017-12-29T14:50:34.045Z,71.03
2017-12-29T14:52:26.226Z,70.56
2017-12-29T14:53:26.232Z,70.84
2017-12-29T14:55:18.396Z,70.56
2017-12-29T14:56:18.419Z,70.90
2017-12-29T14:58:10.603Z,71.57
2017-12-29T14:59:10.649Z,71.32
2017-12-29T15:01:03.807Z,71.76
2017-12-29T15:02:03.818Z,71.38
2017-12-29T15:03:56.031Z,71.76
2017-12-29T15:04:56.008Z,71.85
2017-12-29T15:06:49.158Z,72.23
2017-12-29T15:07:49.168Z,72.33
2017-12-29T15:09:41.341Z,72.14
2017-12-29T15:10:41.364Z,72.99
2017-12-29T15:12:34.519Z,72.71
2017-12-29T15:13:34.527Z,72.99
2017-12-29T15:15:43.073Z,73.27
2017-12-29T15:16:43.088Z,73.27
2017-12-29T15:18:35.279Z,73.18
2017-12-29T15:19:35.281Z,73.65
2017-12-29T15:21:28.443Z,73.56
2017-12-29T15:22:28.464Z,73.75
2017-12-29T15:24:20.635Z,73.75
2017-12-29T15:25:20.642Z,73.94
2017-12-29T15:27:12.809Z,74.41
2017-12-29T15:28:12.781Z,74.41
2017-12-29T15:30:04.933Z,74.69
2017-12-29T15:31:04.947Z,74.69
2017-12-29T15:32:57.132Z,74.69
2017-12-29T15:33:57.133Z,75.45
2017-12-29T15:35:49.281Z,75.45
2017-12-29T15:36:49.301Z,75.36
2017-12-29T15:38:42.444Z,75.70
2017-12-29T15:39:42.448Z,75.42
2017-12-29T15:41:34.607Z,76.17
2017-12-29T15:42:34.617Z,76.36
2017-12-29T15:44:26.818Z,76.27
2017-12-29T15:45:26.827Z,76.27
2017-12-29T15:47:32.364Z,76.27
2017-12-29T15:48:32.368Z,76.74
2017-12-29T15:50:40.892Z,76.74
2017-12-29T15:51:40.892Z,77.22
2017-12-29T15:53:33.068Z,77.22
2017-12-29T15:54:33.067Z,77.22
2017-12-29T15:56:26.228Z,76.93
2017-12-29T15:57:26.225Z,76.65
2017-12-29T15:59:18.420Z,76.55
2017-12-29T16:00:18.426Z,76.84
2017-12-29T16:02:10.575Z,77.22
2017-12-29T16:03:10.575Z,77.22
2017-12-29T16:05:02.735Z,77.03
2017-12-29T16:06:02.745Z,76.93
2017-12-29T16:07:54.906Z,77.59
2017-12-29T16:08:54.924Z,77.88
2017-12-29T16:10:48.129Z,78.26
2017-12-29T16:11:48.142Z,77.88
2017-12-29T16:13:41.299Z,77.97
2017-12-29T16:14:41.303Z,77.78
2017-12-29T16:16:44.143Z,78.16
2017-12-29T16:17:44.190Z,77.69
2017-12-29T16:19:36.325Z,78.16
2017-12-29T16:20:36.339Z,78.07
2017-12-29T16:22:28.598Z,77.78
2017-12-29T16:23:28.620Z,78.16
2017-12-29T16:25:37.148Z,77.69
2017-12-29T16:26:37.161Z,78.07
2017-12-29T16:28:29.296Z,77.69
2017-12-29T16:29:29.314Z,77.59
2017-12-29T16:31:21.493Z,77.69
2017-12-29T16:32:21.497Z,77.12
2017-12-29T16:34:13.694Z,77.50
2017-12-29T16:35:13.668Z,77.69
2017-12-29T16:37:06.821Z,77.56
2017-12-29T16:38:06.838Z,77.65
2017-12-29T16:39:59.003Z,77.46
2017-12-29T16:40:59.029Z,77.56
2017-12-29T16:42:52.196Z,77.18
2017-12-29T16:43:52.211Z,77.56
2017-12-29T16:45:44.405Z,77.56
2017-12-29T16:46:44.401Z,77.46
2017-12-29T16:48:37.523Z,77.12
2017-12-29T16:49:37.538Z,76.51
2017-12-29T16:51:29.708Z,77.22
2017-12-29T16:52:29.701Z,76.99
2017-12-29T16:54:21.930Z,76.93
2017-12-29T16:55:21.909Z,76.46
2017-12-29T16:57:14.070Z,76.70
2017-12-29T16:58:14.084Z,76.70
2017-12-29T17:00:06.311Z,77.37
2017-12-29T17:01:06.313Z,76.99
2017-12-29T17:02:58.493Z,77.65
2017-12-29T17:03:58.500Z,77.27
2017-12-29T17:05:50.694Z,77.08
2017-12-29T17:06:50.700Z,76.99
2017-12-29T17:08:42.849Z,77.18
2017-12-29T17:09:42.885Z,77.46
2017-12-29T17:11:36.126Z,77.37
2017-12-29T17:12:36.100Z,77.18
2017-12-29T17:14:29.262Z,77.56
2017-12-29T17:15:29.249Z,77.65
2017-12-29T17:17:22.422Z,77.65
2017-12-29T17:18:22.432Z,77.08
2017-12-29T17:20:15.559Z,77.08
2017-12-29T17:21:15.579Z,77.12
2017-12-29T17:23:08.701Z,76.80
2017-12-29T17:24:08.724Z,76.93
2017-12-29T17:26:01.877Z,76.80
2017-12-29T17:27:01.889Z,77.08
2017-12-29T17:29:12.419Z,76.80
2017-12-29T17:30:12.422Z,76.80
2017-12-29T17:32:04.594Z,76.89
2017-12-29T17:33:04.610Z,76.61
2017-12-29T17:34:56.759Z,76.55
2017-12-29T17:35:56.770Z,76.51
2017-12-29T17:38:06.403Z,76.55
2017-12-29T17:39:06.381Z,75.95
2017-12-29T17:40:58.542Z,76.14
2017-12-29T17:41:58.514Z,75.85
2017-12-29T17:44:08.081Z,76.61
2017-12-29T17:45:08.088Z,76.14
2017-12-29T17:47:00.302Z,75.70
2017-12-29T17:48:00.267Z,75.42
2017-12-29T17:49:52.441Z,75.70
2017-12-29T17:50:52.449Z,75.76
2017-12-29T17:53:02.012Z,75.66
2017-12-29T17:54:02.010Z,75.57
2017-12-29T17:56:10.557Z,76.51
2017-12-29T17:57:10.558Z,76.70
2017-12-29T17:59:03.784Z,76.89
2017-12-29T18:00:03.792Z,77.27
2017-12-29T18:01:56.946Z,78.22
2017-12-29T18:02:56.932Z,78.18
2017-12-29T18:04:50.163Z,78.18
2017-12-29T18:05:50.101Z,77.99
2017-12-29T18:07:43.259Z,78.65
2017-12-29T18:08:43.254Z,78.75
2017-12-29T18:10:36.462Z,79.41
2017-12-29T18:11:36.456Z,79.32
2017-12-29T18:13:29.666Z,79.41
2017-12-29T18:14:29.652Z,79.13
2017-12-29T18:16:22.831Z,79.79
2017-12-29T18:17:22.824Z,80.07
2017-12-29T18:19:15.959Z,79.32
2017-12-29T18:20:15.972Z,79.03
2017-12-29T18:22:25.470Z,79.03
2017-12-29T18:23:25.482Z,79.79
2017-12-29T18:25:18.655Z,80.74
2017-12-29T18:26:18.675Z,80.07
2017-12-29T18:28:11.840Z,79.88
2017-12-29T18:29:11.857Z,79.79
2017-12-29T18:31:21.552Z,79.79
2017-12-29T18:32:21.537Z,80.17
2017-12-29T18:34:31.085Z,79.88
2017-12-29T18:35:31.065Z,79.79
2017-12-29T18:37:40.580Z,79.79
2017-12-29T18:38:40.578Z,79.69